Time;durP1;ratioP1;P1;durP2;ratioP2;P2;SDS_P1;SDS_P2;PMS_P1;PMS_P2;Temp;Humidity;BMP_temperature;BMP_pressure;BME280_temperature;BME280_humidity;BME280_pressure;Samples;Min_cycle;Max_cycle;Signal;HPM_P1;HPM_P2
2022/08/17 00:00:15;;;;;;;10.77;9.35;;;;;;;22.33;62.18;100012.91;5075205;28;20449;-55
2022/08/17 00:02:56;;;;;;;10.57;9.48;;;;;;;22.60;62.50;100065.69;5063163;28;20075;-55
2022/08/17 00:05:22;;;;;;;12.57;10.05;;;;;;;22.69;61.89;100072.19;5053693;28;20072;-56
2022/08/17 00:07:47;;;;;;;13.82;10.38;;;;;;;22.67;62.05;100069.63;5054064;28;20029;-56
2022/08/17 00:10:13;;;;;;;14.57;9.95;;;;;;;22.70;62.37;100066.81;5045691;28;20021;-56
2022/08/17 00:12:40;;;;;;;11.93;9.65;;;;;;;22.61;62.09;100071.84;5045633;28;20033;-56
2022/08/17 00:15:08;;;;;;;14.20;10.70;;;;;;;22.67;61.62;100064.34;5045865;28;20022;-56
2022/08/17 00:17:33;;;;;;;13.65;10.48;;;;;;;22.70;61.97;100061.53;5061810;28;20051;-56
2022/08/17 00:19:59;;;;;;;11.77;10.48;;;;;;;22.47;62.25;100063.00;5061907;28;20025;-56
2022/08/17 00:22:25;;;;;;;13.90;10.65;;;;;;;22.41;62.61;100063.41;5063544;28;20024;-55
2022/08/17 00:24:51;;;;;;;15.13;11.38;;;;;;;22.26;63.43;100067.00;5064065;28;20033;-55
2022/08/17 00:27:17;;;;;;;12.13;10.43;;;;;;;22.35;62.86;100066.47;5055006;28;20087;-55
2022/08/17 00:29:44;;;;;;;11.93;10.60;;;;;;;22.40;62.48;100074.91;5067656;28;20028;-56
2022/08/17 00:32:11;;;;;;;14.32;10.93;;;;;;;22.43;62.91;100071.25;5085690;28;20024;-55
2022/08/17 00:34:37;;;;;;;13.18;11.18;;;;;;;22.31;62.96;100064.94;5049435;28;20036;-55
2022/08/17 00:37:03;;;;;;;14.05;11.35;;;;;;;22.20;63.88;100074.41;5045463;28;20101;-55
2022/08/17 00:39:28;;;;;;;15.95;11.00;;;;;;;22.36;62.62;100079.56;5044924;28;20046;-56
2022/08/17 00:41:54;;;;;;;15.07;11.77;;;;;;;22.30;63.00;100069.34;5053510;28;20041;-56
2022/08/17 00:44:20;;;;;;;16.08;11.10;;;;;;;22.25;63.37;100063.53;5050072;28;20021;-56
2022/08/17 00:46:46;;;;;;;15.48;11.43;;;;;;;22.09;63.88;100063.69;5063429;28;20028;-56
2022/08/17 00:49:14;;;;;;;17.42;12.40;;;;;;;22.01;63.94;100052.75;5065261;28;20028;-55
2022/08/17 00:51:55;;;;;;;14.13;11.90;;;;;;;22.07;64.28;100060.28;5064950;28;20032;-56
2022/08/17 00:54:26;;;;;;;13.88;11.43;;;;;;;21.90;64.16;100042.88;5059772;28;20080;-55
2022/08/17 00:57:03;;;;;;;14.18;11.38;;;;;;;21.74;63.88;100013.16;5067997;28;20032;-55
2022/08/17 00:59:35;;;;;;;13.30;11.10;;;;;;;21.75;63.96;100009.56;5084748;28;20332;-55
2022/08/17 01:02:02;;;;;;;14.85;11.38;;;;;;;21.91;64.65;100057.75;5044841;28;20080;-55
2022/08/17 01:04:30;;;;;;;11.73;10.10;;;;;;;22.03;63.59;100057.00;5072817;28;20216;-54
2022/08/17 01:07:00;;;;;;;12.32;10.75;;;;;;;21.84;64.30;100036.19;5068695;28;20035;-55
2022/08/17 01:09:26;;;;;;;13.43;11.35;;;;;;;21.91;64.34;100046.38;5084459;28;20024;-54
2022/08/17 01:11:51;;;;;;;13.30;11.27;;;;;;;21.79;64.61;100042.69;5083350;28;20027;-54
2022/08/17 01:14:22;;;;;;;15.93;10.60;;;;;;;21.91;64.43;100044.56;5084525;28;20028;-55
2022/08/17 01:16:50;;;;;;;15.32;11.20;;;;;;;21.44;64.91;99990.38;5049672;28;20037;-55
2022/08/17 01:19:19;;;;;;;15.40;10.98;;;;;;;21.21;65.88;100004.00;5046647;28;20029;-54
2022/08/17 01:22:02;;;;;;;11.88;10.38;;;;;;;21.24;65.66;99997.69;5044239;28;20073;-54
2022/08/17 01:24:28;;;;;;;14.38;10.98;;;;;;;21.63;65.33;100045.44;5044199;28;20218;-54
2022/08/17 01:26:54;;;;;;;11.60;10.15;;;;;;;21.79;64.52;100045.34;5051275;28;20029;-55
2022/08/17 01:29:23;;;;;;;14.20;11.82;;;;;;;21.36;65.33;100004.00;5084137;28;20069;-54
2022/08/17 01:31:54;;;;;;;15.45;11.63;;;;;;;21.40;65.59;100013.41;5045966;28;20048;-54
2022/08/17 01:34:20;;;;;;;11.93;10.70;;;;;;;21.56;65.48;100044.97;5044174;28;20040;-55
2022/08/17 01:36:48;;;;;;;13.98;11.30;;;;;;;21.53;65.97;100051.31;5044203;28;20033;-55
2022/08/17 01:39:23;;;;;;;13.40;11.75;;;;;;;21.17;66.09;99994.59;5050150;28;20059;-55
2022/08/17 01:41:54;;;;;;;14.70;11.52;;;;;;;21.10;66.29;99998.53;5061726;28;20029;-55
2022/08/17 01:44:22;;;;;;;15.43;11.50;;;;;;;21.43;66.19;100041.38;5044587;28;20029;-54
2022/08/17 01:46:48;;;;;;;13.73;11.52;;;;;;;21.23;66.87;100045.22;5059176;28;20253;-55
2022/08/17 01:49:14;;;;;;;14.48;12.70;;;;;;;21.24;66.60;100031.09;5045590;28;20318;-55
2022/08/17 01:51:40;;;;;;;15.18;12.48;;;;;;;21.04;67.70;100033.97;5042617;28;20030;-56
2022/08/17 01:54:11;;;;;;;13.23;11.93;;;;;;;21.16;67.35;100042.97;5044088;28;20045;-55
2022/08/17 01:56:40;;;;;;;12.95;11.65;;;;;;;20.54;68.22;99995.66;5063723;28;20032;-56
2022/08/17 01:59:06;;;;;;;14.68;11.82;;;;;;;20.98;67.76;100044.06;5063664;28;20037;-56
2022/08/17 02:01:33;;;;;;;16.90;11.82;;;;;;;21.05;67.73;100040.13;5045885;28;20044;-55
2022/08/17 02:03:59;;;;;;;14.05;12.13;;;;;;;20.81;68.34;100043.25;5055615;28;20029;-55
2022/08/17 02:06:26;;;;;;;13.40;11.90;;;;;;;20.91;67.97;100045.31;5070930;28;20092;-55
2022/08/17 02:08:52;;;;;;;12.40;11.07;;;;;;;21.03;67.18;100034.06;5083469;28;20032;-55
2022/08/17 02:11:20;;;;;;;16.20;12.23;;;;;;;20.68;68.00;99987.00;5083613;28;20127;-55
2022/08/17 02:13:48;;;;;;;17.60;11.52;;;;;;;20.58;68.77;100014.72;5082428;28;20087;-55
2022/08/17 02:16:14;;;;;;;13.45;11.23;;;;;;;20.76;68.72;100033.91;5043346;28;20037;-53
2022/08/17 02:18:40;;;;;;;14.70;12.15;;;;;;;20.57;69.48;100027.06;5071521;28;20051;-53
2022/08/17 02:21:06;;;;;;;13.68;11.40;;;;;;;20.85;68.29;100028.13;5074167;28;20330;-54
2022/08/17 02:23:37;;;;;;;16.00;11.75;;;;;;;20.61;69.12;100019.84;5043279;28;20305;-54
2022/08/17 02:26:03;;;;;;;13.40;11.60;;;;;;;20.83;68.29;100038.72;5043599;28;20341;-56
2022/08/17 02:28:29;;;;;;;14.10;11.27;;;;;;;20.75;68.06;100016.41;5059385;28;20028;-54
2022/08/17 02:30:56;;;;;;;15.73;11.27;;;;;;;20.74;68.35;100033.19;5074552;28;20095;-55
2022/08/17 02:33:22;;;;;;;15.32;11.45;;;;;;;20.71;68.71;100034.19;5083370;28;20025;-55
2022/08/17 02:35:48;;;;;;;13.93;11.05;;;;;;;20.65;68.69;100030.09;5079013;28;20032;-56
2022/08/17 02:38:13;;;;;;;12.07;10.73;;;;;;;20.52;69.15;100032.59;5042747;28;20265;-56
2022/08/17 02:40:39;;;;;;;14.77;10.93;;;;;;;20.83;67.94;100048.41;5077956;28;20036;-55
2022/08/17 02:43:08;;;;;;;12.77;10.30;;;;;;;20.76;68.17;100040.03;5083116;28;20233;-56
2022/08/17 02:45:35;;;;;;;10.77;9.68;;;;;;;20.83;67.94;100043.16;5061268;28;20199;-56
2022/08/17 02:48:01;;;;;;;12.18;10.93;;;;;;;20.65;68.46;100040.63;5043068;28;20021;-56
2022/08/17 02:50:27;;;;;;;11.63;10.02;;;;;;;20.63;68.50;100036.38;5043195;28;20302;-55
2022/08/17 02:52:53;;;;;;;13.18;10.88;;;;;;;20.65;68.38;100035.38;5081143;28;20020;-56
2022/08/17 02:55:36;;;;;;;12.80;10.68;;;;;;;20.43;68.36;99988.38;5072403;28;20092;-56
2022/08/17 02:58:02;;;;;;;11.25;10.00;;;;;;;20.80;67.82;100032.81;5051085;28;20071;-56
2022/08/17 03:00:34;;;;;;;11.90;10.52;;;;;;;20.42;68.54;100017.41;5042893;28;20069;-56
2022/08/17 03:03:01;;;;;;;11.05;9.95;;;;;;;20.48;68.50;100028.44;5042893;28;20314;-56
2022/08/17 03:05:29;;;;;;;12.45;9.77;;;;;;;20.46;67.93;99993.47;5042813;28;20092;-56
2022/08/17 03:07:55;;;;;;;13.05;9.68;;;;;;;20.85;67.74;100031.59;5042609;28;20023;-56
2022/08/17 03:10:23;;;;;;;13.27;10.15;;;;;;;20.79;67.58;100024.06;5046512;28;20032;-56
2022/08/17 03:12:50;;;;;;;10.32;9.25;;;;;;;20.95;66.79;100025.78;5062734;28;20340;-56
2022/08/17 03:15:20;;;;;;;12.32;9.50;;;;;;;20.39;67.64;99986.84;5062662;28;20021;-56
2022/08/17 03:17:46;;;;;;;12.13;9.60;;;;;;;20.73;67.53;100032.31;5064188;28;20033;-56
2022/08/17 03:20:15;;;;;;;13.52;9.88;;;;;;;20.77;67.30;100049.63;5081662;28;20532;-57
2022/08/17 03:22:50;;;;;;;11.30;9.90;;;;;;;20.36;67.62;99981.78;5061559;28;20027;-56
2022/08/17 03:25:20;;;;;;;10.75;8.95;;;;;;;20.59;66.99;99987.50;5062493;28;20096;-56
2022/08/17 03:27:46;;;;;;;12.85;9.20;;;;;;;20.67;67.14;100032.69;5054902;28;20096;-55
2022/08/17 03:30:12;;;;;;;10.38;8.88;;;;;;;20.81;67.36;100030.09;5046255;28;20035;-55
2022/08/17 03:32:44;;;;;;;17.60;9.45;;;;;;;20.98;66.71;100038.78;5046830;28;20037;-56
2022/08/17 03:35:12;;;;;;;10.95;9.25;;;;;;;20.89;66.96;100036.69;5085323;28;20029;-55
2022/08/17 03:37:38;;;;;;;14.82;8.85;;;;;;;20.82;66.90;100037.06;5069452;28;20040;-55
2022/08/17 03:40:06;;;;;;;11.90;9.18;;;;;;;20.87;66.72;100034.13;5077921;28;20102;-55
2022/08/17 03:42:34;;;;;;;13.38;8.65;;;;;;;21.07;66.16;100025.06;5070515;28;20059;-55
2022/08/17 03:45:02;;;;;;;14.20;9.30;;;;;;;21.03;65.82;100026.19;5052173;28;20102;-55
2022/08/17 03:58:35;;;;;;;10.63;9.13;;;;;;;20.99;65.81;100029.94;5065785;28;20049;-56
2022/08/17 04:01:01;;;;;;;11.63;9.35;;;;;;;20.95;66.04;100021.38;5065164;28;20257;-56
2022/08/17 04:03:27;;;;;;;14.35;8.90;;;;;;;21.02;66.30;100035.00;5072448;28;20076;-55
2022/08/17 04:05:53;;;;;;;10.18;8.10;;;;;;;21.27;65.65;100025.66;5085738;28;20074;-55
2022/08/17 04:08:19;;;;;;;13.10;9.32;;;;;;;21.11;65.69;100025.75;5067951;28;20029;-55
2022/08/17 04:10:45;;;;;;;12.90;9.23;;;;;;;20.95;66.11;100031.91;5082976;28;20038;-55
2022/08/17 04:13:11;;;;;;;12.77;8.85;;;;;;;21.13;65.60;100016.78;5060153;28;20030;-55
2022/08/17 04:15:37;;;;;;;11.75;8.25;;;;;;;21.35;65.24;100039.22;5045132;28;20028;-55
2022/08/17 04:18:03;;;;;;;10.95;7.55;;;;;;;21.26;65.22;100034.47;5045486;28;20034;-54
2022/08/17 04:20:28;;;;;;;10.18;8.00;;;;;;;21.04;65.95;100039.25;5045459;28;20198;-54
2022/08/17 04:23:01;;;;;;;10.88;8.38;;;;;;;20.72;65.71;99999.00;5045475;28;20025;-54
2022/08/17 04:25:28;;;;;;;10.68;8.23;;;;;;;21.24;65.46;100025.84;5045374;28;20039;-54
2022/08/17 04:27:54;;;;;;;14.40;8.18;;;;;;;21.05;65.77;100026.94;5045378;28;20029;-54
2022/08/17 04:30:20;;;;;;;11.27;8.80;;;;;;;21.36;65.38;100032.97;5045186;28;20028;-53
2022/08/17 04:33:04;;;;;;;11.20;8.40;;;;;;;21.30;64.84;100007.03;5047029;28;20021;-53
2022/08/17 04:35:51;;;;;;;10.73;8.52;;;;;;;21.19;65.03;100029.59;5085538;28;20086;-54
2022/08/17 04:38:19;;;;;;;13.07;8.70;;;;;;;21.05;64.51;99979.53;5044991;28;20408;-55
2022/08/17 04:43:31;;;;;;;9.88;8.77;;;;;;;21.43;64.68;100010.59;5048191;28;20063;-55
2022/08/17 04:46:00;;;;;;;11.50;8.52;;;;;;;21.49;64.16;99980.38;5044639;28;20032;-55
2022/08/17 04:48:30;;;;;;;12.50;8.90;;;;;;;21.59;63.58;99978.91;5057348;28;20049;-55
2022/08/17 04:50:58;;;;;;;9.90;8.15;;;;;;;21.73;63.58;100001.75;5046794;28;20060;-55
2022/08/17 04:53:23;;;;;;;15.25;8.18;;;;;;;21.99;63.74;100017.69;5064971;28;20305;-55
2022/08/17 04:55:52;;;;;;;12.07;8.70;;;;;;;22.10;63.05;100015.22;5064628;28;20033;-55
2022/08/17 04:58:18;;;;;;;11.98;8.23;;;;;;;22.14;63.09;100016.72;5051460;28;20025;-55
2022/08/17 05:00:44;;;;;;;13.30;8.95;;;;;;;22.19;62.52;100017.28;5044660;28;20353;-55
2022/08/17 05:03:10;;;;;;;8.50;7.70;;;;;;;22.33;62.57;100020.84;5047956;28;20033;-55
2022/08/17 05:05:38;;;;;;;13.10;8.05;;;;;;;22.40;61.77;100008.94;5044959;28;20040;-57
2022/08/17 05:08:05;;;;;;;11.82;8.70;;;;;;;22.40;61.36;99993.97;5064173;28;20029;-56
2022/08/17 05:10:34;;;;;;;9.95;8.27;;;;;;;22.46;61.55;99976.00;5064391;28;20337;-56
2022/08/17 05:13:07;;;;;;;9.88;7.90;;;;;;;22.38;60.69;99982.66;5064263;28;20217;-56
2022/08/17 05:15:34;;;;;;;12.90;8.00;;;;;;;22.57;60.78;100007.81;5057318;28;20101;-56
2022/08/17 05:18:00;;;;;;;12.30;7.28;;;;;;;22.74;61.06;100004.06;5061974;28;20039;-55
2022/08/17 05:20:26;;;;;;;11.15;7.95;;;;;;;22.91;60.28;100006.41;5064137;28;20045;-56
2022/08/17 05:22:56;;;;;;;19.30;8.25;;;;;;;22.92;59.89;99973.75;5059751;28;20025;-56
2022/08/17 05:25:25;;;;;;;11.70;7.78;;;;;;;22.86;60.21;100005.88;5058209;28;20037;-55
2022/08/17 05:27:52;;;;;;;10.82;7.97;;;;;;;22.91;60.27;100000.28;5053899;28;20022;-55
2022/08/17 05:30:18;;;;;;;11.00;7.88;;;;;;;22.99;60.34;100000.59;5044108;28;20025;-55
2022/08/17 05:32:58;;;;;;;13.60;8.25;;;;;;;23.18;60.58;100008.13;5043785;28;20052;-54
2022/08/17 05:35:25;;;;;;;12.55;8.07;;;;;;;23.07;59.41;99973.66;5044365;28;20100;-55
2022/08/17 05:37:52;;;;;;;11.63;7.88;;;;;;;23.32;59.28;100001.06;5043759;28;20029;-55
2022/08/17 05:40:19;;;;;;;9.10;7.85;;;;;;;23.34;59.56;100007.91;5044060;28;20037;-55
2022/08/17 05:42:45;;;;;;;12.20;8.10;;;;;;;23.29;59.33;100003.91;5043861;28;20060;-54
2022/08/17 05:45:12;;;;;;;12.02;7.85;;;;;;;23.49;59.54;100005.19;5049810;28;20017;-55
2022/08/17 05:47:38;;;;;;;13.35;8.02;;;;;;;23.50;59.19;100002.41;5043757;28;20091;-55
2022/08/17 05:50:08;;;;;;;9.77;7.35;;;;;;;23.72;59.11;100004.38;5048405;28;20096;-55
2022/08/17 05:52:49;;;;;;;16.92;8.30;;;;;;;23.55;58.86;99962.44;5048459;28;20092;-54
2022/08/17 05:55:44;;;;;;;17.73;7.80;;;;;;;23.94;57.90;100003.72;5053592;28;20031;-55
2022/08/17 05:58:30;;;;;;;15.32;8.80;;;;;;;24.04;57.86;99997.75;5051769;28;20033;-55
2022/08/17 06:01:23;;;;;;;10.05;6.90;;;;;;;24.00;57.12;99993.63;5052186;28;20257;-55
2022/08/17 06:04:20;;;;;;;9.63;7.88;;;;;;;24.20;57.12;100000.97;5052493;28;20029;-55
2022/08/17 06:06:57;;;;;;;21.42;7.65;;;;;;;24.20;57.08;99971.84;5051485;28;20037;-55
2022/08/17 06:09:44;;;;;;;12.65;8.25;;;;;;;24.30;56.62;100009.91;5041690;28;20350;-55
2022/08/17 06:12:22;;;;;;;12.13;7.95;;;;;;;24.41;56.43;99992.38;5048396;28;20040;-54
2022/08/17 06:15:02;;;;;;;15.30;7.50;;;;;;;24.47;55.82;99994.59;5079715;28;20032;-56
2022/08/17 06:17:30;;;;;;;8.38;6.78;;;;;;;24.64;55.85;99986.25;5039805;28;20097;-55
2022/08/17 06:20:05;;;;;;;14.00;8.02;;;;;;;24.66;55.36;99974.69;5039814;28;20072;-55
2022/08/17 06:22:40;;;;;;;9.75;6.95;;;;;;;24.61;54.25;99978.53;5043196;28;20035;-55
2022/08/17 06:25:11;;;;;;;12.45;6.95;;;;;;;24.50;54.65;99938.75;5042109;28;20041;-55
2022/08/17 06:27:45;;;;;;;16.30;7.55;;;;;;;24.71;54.07;99959.28;5057610;28;20099;-56
2022/08/17 06:30:15;;;;;;;13.45;6.53;;;;;;;25.01;53.17;99989.69;5083395;28;20255;-55
2022/08/17 06:32:43;;;;;;;6.78;5.18;;;;;;;25.16;53.92;99989.34;5083260;28;20024;-55
2022/08/17 06:35:12;;;;;;;9.43;6.63;;;;;;;24.98;53.05;99949.22;5042766;28;20025;-54
2022/08/17 06:37:47;;;;;;;8.00;6.32;;;;;;;25.31;51.47;99991.75;5042838;28;20340;-56
2022/08/17 06:40:34;;;;;;;10.70;6.53;;;;;;;25.38;51.59;99992.16;5053749;28;20100;-56
2022/08/17 06:43:31;;;;;;;14.07;6.50;;;;;;;25.42;51.19;99989.13;5073069;28;20028;-56
2022/08/17 06:46:07;;;;;;;10.65;5.82;;;;;;;24.99;51.00;99942.09;5059775;28;20321;-56
2022/08/17 06:48:38;;;;;;;10.50;6.80;;;;;;;25.65;51.37;99986.47;5069275;28;20329;-57
2022/08/17 06:51:25;;;;;;;12.50;6.07;;;;;;;25.76;50.11;99991.75;5078177;28;20166;-57
2022/08/17 06:54:14;;;;;;;8.63;5.72;;;;;;;25.80;49.83;99992.38;5042982;28;20041;-56
2022/08/17 06:56:52;;;;;;;11.25;5.47;;;;;;;25.94;49.41;99989.44;5057408;28;20033;-56
2022/08/17 06:59:24;;;;;;;10.90;5.75;;;;;;;25.91;47.53;99979.06;5063114;28;20253;-56
2022/08/17 07:01:51;;;;;;;8.50;4.80;;;;;;;25.98;47.18;99982.91;5080398;28;20075;-56
2022/08/17 07:04:25;;;;;;;9.52;4.93;;;;;;;25.97;47.30;99946.72;5062624;28;20191;-57
2022/08/17 07:07:00;;;;;;;10.07;5.45;;;;;;;26.35;47.79;99989.69;5066827;28;20021;-55
2022/08/17 07:09:34;;;;;;;14.38;5.38;;;;;;;26.04;45.95;99932.94;5066824;28;20025;-55
2022/08/17 07:12:14;;;;;;;10.40;5.80;;;;;;;26.10;46.73;99980.25;5068396;28;20037;-56
2022/08/17 07:14:51;;;;;;;9.38;4.97;;;;;;;26.39;46.09;99974.34;5086829;28;20062;-54
2022/08/17 07:17:19;;;;;;;8.32;5.03;;;;;;;26.49;45.92;99978.78;5086829;28;20043;-54
2022/08/17 07:19:47;;;;;;;8.13;5.05;;;;;;;26.14;45.48;99936.56;5055412;28;20021;-55
2022/08/17 07:22:19;;;;;;;12.00;5.57;;;;;;;26.64;45.03;99973.13;5053611;28;20040;-55
2022/08/17 07:24:50;;;;;;;6.90;5.22;;;;;;;26.45;45.54;99928.66;5054436;28;20036;-56
2022/08/17 07:27:32;;;;;;;7.53;5.05;;;;;;;26.60;44.95;99939.81;5047879;28;20063;-55
2022/08/17 07:30:00;;;;;;;10.77;5.22;;;;;;;27.02;45.34;99967.25;5048358;28;20329;-56
2022/08/17 07:32:30;;;;;;;7.85;5.07;;;;;;;27.03;44.57;99971.56;5086609;28;20020;-55
2022/08/17 07:35:09;;;;;;;11.80;5.55;;;;;;;26.80;44.91;99927.53;5051758;28;20040;-54
2022/08/17 07:37:37;;;;;;;42.17;7.68;;;;;;;27.14;44.21;99977.78;5046377;28;20330;-57
2022/08/17 07:40:26;;;;;;;12.55;6.32;;;;;;;27.16;44.30;99970.50;5066690;28;20055;-54
2022/08/17 07:43:18;;;;;;;8.35;5.15;;;;;;;27.23;44.06;99968.16;5069492;28;20100;-54
2022/08/17 07:48:57;;;;;;;;;;;;;;;27.11;43.82;99965.59;5046788;28;20035;-56
2022/08/17 07:51:27;;;;;;;9.77;4.82;;;;;;;27.18;43.93;99960.59;5046755;28;19905;-56
2022/08/17 07:54:01;;;;;;;9.88;4.93;;;;;;;27.23;43.91;99950.38;5042616;28;20047;-56
2022/08/17 07:56:39;;;;;;;7.05;4.18;;;;;;;27.33;43.23;99935.28;5046897;28;20476;-57
2022/08/17 07:59:20;;;;;;;8.95;4.85;;;;;;;27.33;44.25;99907.88;5064082;28;20039;-54
2022/08/17 08:02:04;;;;;;;12.75;5.22;;;;;;;27.47;43.44;99914.66;5060247;28;20084;-55
2022/08/17 08:04:41;;;;;;;12.73;5.25;;;;;;;27.47;43.22;99919.97;5052872;28;20045;-55
2022/08/17 08:07:37;;;;;;;7.20;4.82;;;;;;;27.71;42.85;99955.03;5063431;28;20029;-54
2022/08/17 08:10:03;;;;;;;7.95;4.95;;;;;;;27.79;43.72;99953.50;5053551;28;20036;-55
2022/08/17 08:12:36;;;;;;;6.07;4.75;;;;;;;27.81;42.58;99954.22;5049724;28;20025;-54
2022/08/17 08:15:24;;;;;;;11.70;5.40;;;;;;;27.61;42.25;99918.75;5065490;28;20021;-55
2022/08/17 08:17:56;;;;;;;6.20;4.20;;;;;;;27.88;42.35;99950.88;5065605;28;20028;-54
2022/08/17 08:20:37;;;;;;;10.07;5.53;;;;;;;27.81;42.59;99916.97;5064087;28;20071;-55
2022/08/17 08:23:09;;;;;;;6.20;4.87;;;;;;;27.54;41.19;99961.03;5057397;28;20094;-54
2022/08/17 08:25:55;;;;;;;6.57;4.60;;;;;;;27.64;41.99;99958.41;5052775;28;20422;-58
2022/08/17 08:28:42;;;;;;;12.07;5.22;;;;;;;27.98;41.22;99956.22;5057452;28;20108;-55
2022/08/17 08:31:39;;;;;;;7.13;4.72;;;;;;;27.99;41.46;99955.25;5074000;28;20258;-56
2022/08/17 08:34:34;;;;;;;11.65;4.72;;;;;;;28.02;41.59;99957.66;5063942;28;20025;-54
2022/08/17 08:37:31;;;;;;;13.18;5.20;;;;;;;27.91;41.49;99907.16;5042469;28;20056;-55
2022/08/17 08:40:12;;;;;;;10.10;4.93;;;;;;;27.86;41.52;99947.50;5044216;28;20079;-56
2022/08/17 08:43:09;;;;;;;12.57;4.72;;;;;;;28.07;40.67;99960.72;5043989;28;20060;-56
2022/08/17 08:45:51;;;;;;;8.10;5.50;;;;;;;27.98;40.52;99918.09;5056724;28;20076;-55
2022/08/17 08:48:26;;;;;;;7.28;4.90;;;;;;;28.35;40.71;99939.56;5070984;28;20130;-56
2022/08/17 08:51:04;;;;;;;7.80;4.80;;;;;;;27.97;40.55;99900.44;5085186;28;20032;-56
2022/08/17 08:54:02;;;;;;;8.13;4.25;;;;;;;28.09;40.24;99936.63;5045053;28;20028;-54
2022/08/17 08:56:44;;;;;;;5.85;4.50;;;;;;;28.24;41.07;99929.03;5052960;28;20033;-55
2022/08/17 08:59:44;;;;;;;7.20;4.63;;;;;;;28.54;40.51;99927.19;5046068;28;20041;-55
2022/08/17 09:02:35;;;;;;;8.07;4.93;;;;;;;28.64;40.56;99933.34;5081938;28;20025;-55
2022/08/17 09:05:02;;;;;;;8.95;4.90;;;;;;;28.87;40.09;99931.19;5066988;28;20035;-55
2022/08/17 09:07:33;;;;;;;8.80;4.40;;;;;;;29.02;39.97;99926.22;5051450;28;20191;-55
2022/08/17 09:10:04;;;;;;;8.55;5.22;;;;;;;29.27;39.90;99923.91;5044358;28;20043;-55
2022/08/17 09:13:02;;;;;;;;;;;;;;;29.18;39.89;99933.59;5045219;28;20030;-55
2022/08/17 09:15:36;;;;;;;6.90;4.55;;;;;;;28.83;40.05;99886.28;5063209;28;19911;-55
2022/08/17 09:18:09;;;;;;;7.22;4.55;;;;;;;29.08;39.81;99874.94;5084280;28;20028;-54
2022/08/17 09:20:45;;;;;;;7.75;4.75;;;;;;;29.38;39.24;99937.03;5084412;28;20325;-54
2022/08/17 09:23:50;;;;;;;9.52;4.60;;;;;;;28.51;39.05;99882.16;5084494;28;20032;-55
2022/08/17 09:26:39;;;;;;;7.53;4.85;;;;;;;28.84;39.65;99888.81;5043309;28;20059;-55
2022/08/17 09:29:11;;;;;;;8.55;4.78;;;;;;;29.00;38.92;99911.34;5052387;28;20040;-55
2022/08/17 09:32:02;;;;;;;7.10;4.97;;;;;;;29.18;39.02;99917.59;5064469;28;20048;-54
2022/08/17 09:34:41;;;;;;;6.20;4.68;;;;;;;29.31;39.44;99914.59;5062757;28;20287;-56
2022/08/17 09:37:26;;;;;;;8.57;4.40;;;;;;;29.06;38.24;99919.63;5055175;28;20120;-54
2022/08/17 09:40:08;;;;;;;9.25;4.72;;;;;;;28.79;38.57;99884.91;5055223;28;20041;-55
2022/08/17 09:42:43;;;;;;;;;;;;;;;28.54;39.07;99912.03;5066840;28;20040;-54
2022/08/17 09:45:18;;;;;;;6.10;4.20;;;;;;;28.56;38.82;99904.75;5071828;28;19919;-55
2022/08/17 09:47:51;;;;;;;7.28;4.43;;;;;;;28.60;38.98;99867.97;5054585;28;20070;-54
2022/08/17 09:50:35;;;;;;;10.18;4.70;;;;;;;29.03;39.54;99911.06;5059990;28;20052;-55
2022/08/17 09:53:01;;;;;;;5.70;4.40;;;;;;;28.78;38.38;99916.06;5062324;28;20112;-55
2022/08/17 09:55:58;;;;;;;8.30;4.70;;;;;;;28.64;38.34;99913.88;5063359;28;20021;-55
2022/08/17 09:58:43;;;;;;;11.60;4.95;;;;;;;29.00;38.45;99904.22;5054993;28;20037;-55
2022/08/17 10:01:30;;;;;;;6.47;4.57;;;;;;;28.93;38.46;99908.44;5061901;28;20033;-55
2022/08/17 10:03:58;;;;;;;9.27;4.78;;;;;;;28.73;38.38;99913.00;5065257;28;20067;-55
2022/08/17 10:06:46;;;;;;;8.18;4.43;;;;;;;28.71;38.58;99859.81;5046864;28;20025;-55
2022/08/17 10:09:35;;;;;;;12.23;4.97;;;;;;;29.12;38.19;99904.00;5065133;28;20047;-55
2022/08/17 10:12:18;;;;;;;7.90;4.90;;;;;;;29.19;39.12;99905.94;5081964;28;20035;-55
2022/08/17 10:14:54;;;;;;;6.80;4.35;;;;;;;28.83;37.67;99865.81;5043544;28;20033;-54
2022/08/17 10:17:42;;;;;;;9.48;4.60;;;;;;;29.13;37.96;99903.88;5082295;28;20028;-54
2022/08/17 10:20:26;;;;;;;11.88;4.93;;;;;;;29.05;37.36;99899.25;5047714;28;20180;-54
2022/08/17 10:28:39;;;;;;;14.25;5.25;;;;;;;29.39;37.95;99901.38;5071220;28;20318;-54
2022/08/17 10:31:08;;;;;;;10.98;4.93;;;;;;;29.07;37.43;99894.63;5061952;28;20059;-56
2022/08/17 10:34:02;;;;;;;7.57;5.10;;;;;;;28.82;37.38;99869.47;5057985;28;20025;-55
2022/08/17 10:37:03;;;;;;;11.32;4.78;;;;;;;29.26;37.70;99885.72;5059347;28;20332;-55
2022/08/17 10:40:02;;;;;;;8.55;5.15;;;;;;;28.98;37.44;99852.84;5060196;28;20091;-54
2022/08/17 10:42:55;;;;;;;6.13;4.93;;;;;;;29.36;37.77;99888.31;5062781;28;20029;-53
2022/08/17 10:45:28;;;;;;;10.45;5.25;;;;;;;29.40;37.31;99895.06;5061761;28;20225;-54
2022/08/17 10:48:02;;;;;;;8.00;5.70;;;;;;;29.32;37.30;99902.97;5062002;28;20044;-54
2022/08/17 10:50:59;;;;;;;10.73;6.13;;;;;;;29.22;37.19;99897.63;5059419;28;20036;-54
2022/08/17 10:53:30;;;;;;;8.13;6.00;;;;;;;29.42;37.55;99893.06;5043647;28;20112;-54
2022/08/17 10:56:11;;;;;;;10.35;6.00;;;;;;;29.06;37.79;99898.28;5056789;28;20059;-56
2022/08/17 10:58:52;;;;;;;10.63;6.55;;;;;;;29.20;37.65;99888.09;5049650;28;20068;-54
2022/08/17 11:01:38;;;;;;;7.72;6.35;;;;;;;29.21;38.08;99873.78;5047976;28;20029;-54
2022/08/17 11:04:30;;;;;;;9.52;5.20;;;;;;;29.29;37.95;99881.06;5042587;28;20052;-55
2022/08/17 11:07:10;;;;;;;10.02;6.50;;;;;;;29.15;37.94;99885.88;5049466;28;20112;-54
2022/08/17 11:10:01;;;;;;;11.88;6.65;;;;;;;29.14;37.74;99880.69;5055971;28;20318;-56
2022/08/17 11:12:40;;;;;;;11.57;6.75;;;;;;;28.77;37.88;99882.38;5058362;28;20040;-55
2022/08/17 11:15:24;;;;;;;8.07;6.65;;;;;;;29.04;37.82;99873.56;5081255;28;20027;-54
2022/08/17 11:18:00;;;;;;;11.07;6.40;;;;;;;29.26;37.83;99866.22;5042799;28;20033;-54
2022/08/17 11:20:47;;;;;;;12.23;6.55;;;;;;;29.44;37.93;99875.09;5060425;28;20021;-53
2022/08/17 11:23:15;;;;;;;9.23;6.22;;;;;;;29.53;37.84;99869.81;5068837;28;20313;-53
2022/08/17 11:25:50;;;;;;;10.57;6.63;;;;;;;29.20;37.41;99838.25;5051342;28;20056;-54
2022/08/17 11:28:19;;;;;;;9.75;6.18;;;;;;;29.12;37.60;99831.97;5060072;28;20032;-54
2022/08/17 11:30:58;;;;;;;7.60;6.47;;;;;;;29.06;36.93;99839.59;5061867;28;20017;-54
2022/08/17 11:33:33;;;;;;;7.90;6.40;;;;;;;29.14;36.92;99867.34;5054813;28;20087;-55
2022/08/17 11:36:10;;;;;;;9.35;6.70;;;;;;;29.44;36.94;99867.06;5052699;28;20033;-54
2022/08/17 11:38:56;;;;;;;9.05;7.07;;;;;;;29.20;36.60;99872.09;5064554;28;20049;-54
2022/08/17 11:41:22;;;;;;;8.02;6.68;;;;;;;29.20;36.29;99864.94;5044097;28;20098;-54
2022/08/17 11:44:05;;;;;;;10.73;6.38;;;;;;;29.25;36.07;99867.19;5076963;28;20036;-54
2022/08/17 11:53:04;;;;;;;15.88;6.50;;;;;;;29.29;35.91;99860.56;5055121;28;20041;-55
2022/08/17 11:55:31;;;;;;;10.02;6.55;;;;;;;29.36;36.31;99858.97;5059969;28;20080;-55
2022/08/17 11:58:05;;;;;;;12.18;6.30;;;;;;;29.39;35.66;99848.00;5059170;28;20276;-55
2022/08/17 12:00:48;;;;;;;10.88;7.10;;;;;;;29.40;35.48;99851.50;5058711;28;20020;-55
2022/08/17 12:03:21;;;;;;;11.40;7.90;;;;;;;29.25;35.28;99841.34;5056180;28;20033;-55
2022/08/17 12:05:48;;;;;;;10.90;7.45;;;;;;;29.33;35.27;99845.06;5086012;28;20031;-55
2022/08/17 12:08:21;;;;;;;12.60;7.80;;;;;;;29.29;34.81;99835.69;5044625;28;20032;-55
2022/08/17 12:11:29;;;;;;;7.97;7.18;;;;;;;29.37;35.36;99844.66;5058444;28;20107;-54
2022/08/17 12:13:57;;;;;;;10.63;8.05;;;;;;;29.16;34.33;99804.88;5057734;28;20040;-54
2022/08/17 12:16:23;;;;;;;8.20;7.40;;;;;;;29.25;34.25;99844.00;5060925;28;20031;-55
2022/08/17 12:18:53;;;;;;;13.23;9.10;;;;;;;28.81;34.10;99801.13;5060831;28;20052;-55
2022/08/17 12:21:30;;;;;;;10.18;8.38;;;;;;;29.30;34.74;99835.53;5053471;28;20036;-54